Pagina principale
METAR-TAF:

METAR-TAF

Aeroporti :

Aeroporto di Lamezia Terme

Lamezia Terme, Italia

latitudine: 38-54N, longitudine: 016-15E, altezza: 15 m

Osservazione

Il bollettino è stato emesso 1 ora e 47 minuti fa, alle 03:50 UTC
Vento 5 kt da est
Temperature 3°C
Umidità 93%
Pressione 1023 hPa
Visibilità: 8000 m
Nuvoloso ad un'altezza di 2000 ft

METAR: LICA 200350Z 09005KT 8000 BKN020 03/02 Q1023

Ora: 06:37 (05:37 UTC)

Previsione

Il bollettino è stato emesso 6 ore e 37 minuti fa, alle 23:00 UTC
Previsione valida dal 20 alle 00 UTC al 20 alle 24 UTC
Vento 5 kt da direzioni variabili
Visibilità 10 km o più
Nubi sparse ad un'altezza di 2000 ft

TAF: LICA 192300Z 2000/2024 VRB05KT 9999 SCT020

Osservazioni e previsioni meteorologiche di più di 4000 aeroporti (messaggi METAR e TAF).

Le stazioni disponibili sono rappresentate dai dischi gialli e rossi sulla carta.

Puntare il mouse per vedere il nome della stazione.

Clicca sopra per visualizzare le osservazioni e previsioni meteorologiche.

Per cambiare la mappa : fare clic sui pulsanti verdi con una croce nera per ingrandire, il pulsante verde con un trattino per diminuire, o sulla freccia verde per le mappe adiacenti.


METAR-TAF: